Flight Track Log - Related Links

Times and Time Zones

All times are in EDT time to prevent confusion due to time zone crossing. See the EJA982 flight status page for this flight to view local times or setup timezone preferences in your user account.

Time Position Orientation Groundspeed Altitude Reporting Facility
EDT Latitude Longitude Course Direction KTS MPH feet Rate Location/Type
Fri 03:19:43 PM 37.7500 -122.2833 256° West 204 235 1,700  Level Northern Cal TRACON
Fri 03:20:43 PM 37.7333 -122.3667 256° West 278 320 6,100 2,820 Climbing Northern Cal TRACON
Fri 03:22:46 PM 37.5950 -122.4375 202° Southwest 300 345 10,300 2,250 Climbing Oakland Center
Fri 03:23:47 PM 37.5081 -122.4653 194° South 319 367 13,000 2,683 Climbing Oakland Center
Fri 03:24:49 PM 37.4194 -122.4414 168° South 358 412 15,800 2,878 Climbing Oakland Center
Fri 03:25:50 PM 37.3403 -122.3253 131° Southeast 368 423 18,900 2,585 Climbing Oakland Center
Fri 03:26:52 PM 37.2706 -122.2239 131° Southeast 381 438 21,100 2,032 Climbing Oakland Center
Fri 03:27:54 PM 37.1961 -122.1181 131° Southeast 404 465 23,100 1,854 Climbing Oakland Center
Fri 03:28:55 PM 37.1189 -122.0061 131° Southeast 421 484 24,900 1,707 Climbing Oakland Center
Fri 03:29:57 PM 37.0381 -121.8919 132° Southeast 438 504 26,600 1,610 Climbing Oakland Center
Fri 03:30:58 PM 36.9525 -121.7742 132° Southeast 455 524 28,200 1,561 Climbing Oakland Center
Fri 03:32:00 PM 36.8650 -121.6544 132° Southeast 467 537 29,800 1,366 Climbing Oakland Center
Fri 03:33:01 PM 36.7744 -121.5239 131° Southeast 480 552 31,000 585 Climbing Oakland Center
Fri 03:34:03 PM 36.6803 -121.3922 132° Southeast 509 586 31,000  Level Oakland Center
Fri 03:35:04 PM 36.5647 -121.2297 131° Southeast 522 601 31,000  Level Oakland Center
Fri 03:36:06 PM 36.4772 -121.1053 131° Southeast 480 552 31,000  Level Oakland Center
Fri 03:37:07 PM 36.3878 -120.9850 133° Southeast 474 545 31,000  Level Oakland Center
Fri 03:38:09 PM 36.2989 -120.8625 132° Southeast 478 550 31,000  Level Oakland Center
Fri 03:39:10 PM 36.2111 -120.7406 132° Southeast 475 547 31,000  Level Oakland Center
Fri 03:40:12 PM 36.1219 -120.6206 133° Southeast 474 545 31,000  Level Oakland Center
Fri 03:41:13 PM 36.0333 -120.5000 132° Southeast 473 544 31,000  Level Oakland Center
Fri 03:42:15 PM 35.9450 -120.3800 132° Southeast 472 543 31,000  Level Oakland Center
Fri 03:43:16 PM 35.8564 -120.2583 132° Southeast 474 545 31,000  Level Oakland Center
Fri 03:44:18 PM 35.7497 -120.1150 132° Southeast 471 542 31,000  Level Oakland Center
Fri 03:45:19 PM 35.6575 -119.9936 133° Southeast 477 549 31,000  Level Oakland Center
Fri 03:46:34 PM 35.5314 -119.8769 143° Southeast 472 543 31,000 -162 Level Los Angeles Center
Fri 03:48:24 PM 35.3353 -119.7106 145° Southeast 472 543 30,500 -702 Descending Oakland Center
Fri 03:49:25 PM 35.2322 -119.6217 145° Southeast 454 522 29,000 -1,421 Descending Oakland Center
Fri 03:49:40 PM 35.2125 -119.6047 145° Southeast 454 522 28,700 -1,325 Descending Los Angeles Center
Fri 03:50:42 PM 35.1150 -119.5222 145° Southeast 432 497 27,300 -1,403 Descending Los Angeles Center
Fri 03:51:44 PM 34.9997 -119.4222 145° Southeast 424 488 25,800 -1,355 Descending Los Angeles Center
Fri 03:52:46 PM 34.9017 -119.3394 145° Southeast 428 493 24,500 -1,258 Descending Los Angeles Center
Fri 03:53:48 PM 34.8053 -119.2583 145° Southeast 423 487 23,200 -1,344 Descending Los Angeles Center
Fri 03:54:51 PM 34.7117 -119.1819 146° Southeast 409 471 21,700 -1,584 Descending Los Angeles Center
Fri 03:55:53 PM 34.6136 -119.0972 145° Southeast 390 449 19,900 -1,645 Descending Los Angeles Center
Fri 03:56:55 PM 34.5272 -119.0244 145° Southeast 379 436 18,300 -1,548 Descending Los Angeles Center
Fri 03:57:57 PM 34.4397 -118.9525 146° Southeast 380 437 16,700 -1,548 Descending Los Angeles Center
Fri 03:58:59 PM 34.3550 -118.8831 146° Southeast 369 425 15,100 -1,452 Descending Los Angeles Center
Fri 04:00:01 PM 34.2717 -118.8511 162° South 308 354 13,700 -1,645 Descending Los Angeles Center
Fri 04:01:03 PM 34.1783 -118.8158 163° South 295 339 11,700 -1,728 Descending Los Angeles Center
Fri 04:02:06 PM 34.1022 -118.7881 163° South 287 330 10,100 -816 Descending Los Angeles Center
Fri 04:03:08 PM 34.0386 -118.7308 143° Southeast 296 341 10,000 -339 Descending Los Angeles Center
Fri 04:04:10 PM 34.0258 -118.6206 98° East 303 349 9,400 -1,210 Descending Los Angeles Center
Fri 04:05:12 PM 34.0169 -118.5219 96° East 296 341 7,500 -1,210 Descending Los Angeles Center
Fri 04:06:14 PM 34.0086 -118.4372 97° East 286 329 6,900 -1,403 Descending Los Angeles Center
Fri 04:07:16 PM 34.0192 -118.3467 82° East 280 322 4,600 -1,694 Descending Los Angeles Center
Fri 04:08:18 PM 34.0275 -118.2614 83° East 220 253 3,400 -768 Descending Los Angeles Center
Fri 04:09:21 PM 34.0194 -118.2061 100° East 195 224 3,000 -192 Descending Los Angeles Center
Fri 04:10:23 PM 33.9786 -118.2406 215° Southwest 195 224 3,000 -242 Level Los Angeles Center
Fri 04:11:25 PM 33.9625 -118.3008 252° West 194 223 2,500 -871 Descending Los Angeles Center
Fri 04:12:27 PM 33.9575 -118.3558 264° West 181 208 1,200 -1,161 Descending Los Angeles Center
Fri 04:13:29 PM 33.9525 -118.4053 263° West 143 165 100 -1,065 Descending Los Angeles Center
Fri 04:15:00 PM 33.9425 -118.4081 228° Southwest  Level Estimated

Login

Don't have an account? Register now (free) for customized features, flight alerts, and more!